Cam Ranh Airport
VVCR : now visible

Aeroporto :











RITROVATECI SU...

 
LOGIN :

Iscrizione | Disclaimer

   EN    FR    IT 

 









Sommario :    VFR   VFR Marginale   IFR   IFR Intensivo   IFR Molto Intensivo
Visibilità : 
Base nubi : 
>= 8 km
>= 3000ft
5 / 8 km
1000 / 3000 ft
1500m / 5 km
500 / 1000 ft
800 / 1500m
200 / 500 ft
< 800m
< 200 ft
Simboli :   Temporali  Nebbia  Neve Forte  Precipitazioni Forti  Vento > 20 kt






- Altitudine del aeroporto : 40 ft
- Codice IATA : CXR


VVCR - Cam Ranh

ULTIMO METAR :
  • 150500Z 05015KT 9999 FEW015 SCT050 30/24 Q1015 NOSIG

METARs OBSOLETI :
  • 150430Z 05015KT 9999 FEW015 SCT050 30/24 Q1016 NOSIG
  • 150400Z 05014KT 9999 FEW015 SCT050 30/24 Q1016 NOSIG
  • 150330Z 05013KT 9999 FEW015 SCT050 29/24 Q1016 NOSIG
  • 150300Z 04016KT 9999 FEW015 SCT050 29/24 Q1016 NOSIG
  • 150230Z 04016KT 9999 FEW013 SCT050 28/24 Q1016 NOSIG

TAF TAF VVCR
Valido dal 15 a 00 ore il 16 a 00 ore UTC


142300Z 1500/1524 05016KT 8000 SCT013 BKN050



MetMap, La meteo Aeronautica in un colpo d'occhio ! - Copyright ORBIFLY Dicembre 2007 - Disclaimer

ORBIFLY MET'MAP TEAM :

Programmazione e sviluppo : Alexandra Zaïnal
Concezione : Baudouin d'Aumeries
Aiuto per la programmazione : Marc-Olivier Méhu
Supporto tecnico e logistico : Manuel Goepfert
Aiuto per la traduzione : Arnaldo La Scala

Contatto : metmap@orbifly.com




FONTI E CREDITI :

   NOAA       Earth
Advisory